createdAt,value
2018-05-24T00:00:42.012Z,21.06
2018-05-24T00:03:08.367Z,21.28
2018-05-24T00:05:34.790Z,21.25
2018-05-24T00:08:01.191Z,21.32
2018-05-24T00:10:27.689Z,20.78
2018-05-24T00:12:54.296Z,20.22
2018-05-24T00:15:20.685Z,20.09
2018-05-24T00:17:47.077Z,19.83
2018-05-24T00:20:13.475Z,20.12
2018-05-24T00:22:39.898Z,20.54
2018-05-24T00:25:06.279Z,20.54
2018-05-24T00:27:32.653Z,20.60
2018-05-24T00:29:59.023Z,20.34
2018-05-24T00:32:25.460Z,20.17
2018-05-24T00:34:51.833Z,19.94
2018-05-24T00:37:18.252Z,19.78
2018-05-24T00:39:44.630Z,19.68
2018-05-24T00:42:11.039Z,20.00
2018-05-24T00:44:37.418Z,19.75
2018-05-24T00:47:04.663Z,19.67
2018-05-24T00:49:31.105Z,19.79
2018-05-24T00:51:57.490Z,19.73
2018-05-24T00:54:23.908Z,20.03
2018-05-24T00:56:50.303Z,20.16
2018-05-24T00:59:16.652Z,20.03
2018-05-24T01:01:42.995Z,19.97
2018-05-24T01:04:09.471Z,19.54
2018-05-24T01:06:35.821Z,19.62
2018-05-24T01:09:02.334Z,19.78
2018-05-24T01:11:28.778Z,20.51
2018-05-24T01:13:55.236Z,20.01
2018-05-24T01:16:21.669Z,20.06
2018-05-24T01:18:48.065Z,19.84
2018-05-24T01:21:14.640Z,19.51
2018-05-24T01:23:41.018Z,19.52
2018-05-24T01:26:07.534Z,19.54
2018-05-24T01:28:33.947Z,19.42
2018-05-24T01:31:00.338Z,19.43
2018-05-24T01:33:26.710Z,19.23
2018-05-24T01:35:53.086Z,19.23
2018-05-24T01:38:19.531Z,19.29
2018-05-24T01:40:45.941Z,19.06
2018-05-24T01:43:12.316Z,19.03
2018-05-24T01:45:38.677Z,19.06
2018-05-24T01:48:06.048Z,18.65
2018-05-24T01:50:32.364Z,18.55
2018-05-24T01:52:58.768Z,18.68
2018-05-24T01:55:25.202Z,18.68
2018-05-24T01:57:51.625Z,18.79
2018-05-24T02:00:19.108Z,18.96
2018-05-24T02:02:45.441Z,18.93
2018-05-24T02:05:11.810Z,19.13
2018-05-24T02:07:38.186Z,19.13
2018-05-24T02:10:04.591Z,18.82
2018-05-24T02:12:30.957Z,18.80
2018-05-24T02:14:57.301Z,18.76
2018-05-24T02:17:24.311Z,18.71
2018-05-24T02:19:50.666Z,18.65
2018-05-24T02:22:17.034Z,18.73
2018-05-24T02:24:43.450Z,18.71
2018-05-24T02:27:09.859Z,18.78
2018-05-24T02:29:36.229Z,18.83
2018-05-24T02:32:02.746Z,18.81
2018-05-24T02:34:29.195Z,18.68
2018-05-24T02:36:55.539Z,18.63
2018-05-24T02:39:21.896Z,18.67
2018-05-24T02:41:48.278Z,18.90
2018-05-24T02:44:14.681Z,18.68
2018-05-24T02:46:41.102Z,18.56
2018-05-24T02:49:07.473Z,18.64
2018-05-24T02:51:33.835Z,18.59
2018-05-24T02:54:00.213Z,18.36
2018-05-24T02:56:27.134Z,18.37
2018-05-24T02:58:53.587Z,18.49
2018-05-24T03:01:19.933Z,18.47
2018-05-24T03:03:46.382Z,18.38
2018-05-24T03:06:12.694Z,18.37
2018-05-24T03:08:39.076Z,18.46
2018-05-24T03:11:05.445Z,18.54
2018-05-24T03:13:31.828Z,18.68
2018-05-24T03:15:58.190Z,18.70
2018-05-24T03:18:24.554Z,18.79
2018-05-24T03:20:50.954Z,18.72
2018-05-24T03:23:17.360Z,18.49
2018-05-24T03:25:43.874Z,18.27
2018-05-24T03:28:10.230Z,18.13
2018-05-24T03:30:36.593Z,18.05
2018-05-24T03:33:02.953Z,18.19
2018-05-24T03:35:29.328Z,18.32
2018-05-24T03:37:55.728Z,18.22
2018-05-24T03:40:22.104Z,18.40
2018-05-24T03:42:48.474Z,18.52
2018-05-24T03:45:14.858Z,18.70
2018-05-24T03:47:41.303Z,18.51
2018-05-24T03:50:07.650Z,18.39
2018-05-24T03:52:34.014Z,18.64
2018-05-24T03:55:01.363Z,18.92
2018-05-24T03:57:27.898Z,18.99
2018-05-24T04:00:07.241Z,19.18
2018-05-24T04:02:45.693Z,18.91
2018-05-24T04:05:11.978Z,19.03
2018-05-24T04:07:38.434Z,19.13
2018-05-24T04:10:04.866Z,19.09
2018-05-24T04:12:31.404Z,19.24
2018-05-24T04:14:58.761Z,18.94
2018-05-24T04:17:25.149Z,19.02
2018-05-24T04:19:51.549Z,19.23
2018-05-24T04:22:17.933Z,19.42
2018-05-24T04:24:45.285Z,19.42
2018-05-24T04:27:11.744Z,19.20
2018-05-24T04:29:38.149Z,19.05
2018-05-24T04:32:04.592Z,19.19
2018-05-24T04:34:31.047Z,19.21
2018-05-24T04:36:57.443Z,19.25
2018-05-24T04:39:23.809Z,19.39
2018-05-24T04:41:50.166Z,19.66
2018-05-24T04:44:16.577Z,19.62
2018-05-24T04:46:42.984Z,19.18
2018-05-24T04:49:09.908Z,18.95
2018-05-24T04:51:36.315Z,18.91
2018-05-24T04:54:02.754Z,18.85
2018-05-24T04:56:29.186Z,18.83
2018-05-24T04:58:55.605Z,19.03
2018-05-24T05:01:21.953Z,19.18
2018-05-24T05:03:48.350Z,19.55
2018-05-24T05:06:14.710Z,19.90
2018-05-24T05:08:41.094Z,19.65
2018-05-24T05:11:08.354Z,19.14
2018-05-24T05:13:34.758Z,19.00
2018-05-24T05:16:01.134Z,18.90
2018-05-24T05:18:27.520Z,18.99
2018-05-24T05:20:53.999Z,18.95
2018-05-24T05:23:21.192Z,19.21
2018-05-24T05:25:47.615Z,19.46
2018-05-24T05:28:14.015Z,19.57
2018-05-24T05:30:40.361Z,19.63
2018-05-24T05:33:06.756Z,19.38
2018-05-24T05:35:33.098Z,19.21
2018-05-24T05:37:59.498Z,19.77
2018-05-24T05:40:25.811Z,19.91
2018-05-24T05:42:52.385Z,19.76
2018-05-24T05:45:18.775Z,20.10
2018-05-24T05:47:45.346Z,19.94
2018-05-24T05:50:11.725Z,20.13
2018-05-24T05:52:38.094Z,20.38
2018-05-24T05:55:04.490Z,19.84
2018-05-24T05:57:31.504Z,19.95
2018-05-24T05:59:57.855Z,19.75
2018-05-24T06:02:24.250Z,19.43
2018-05-24T06:04:51.657Z,19.78
2018-05-24T06:07:18.614Z,19.50
2018-05-24T06:09:45.222Z,19.60
2018-05-24T06:12:11.737Z,19.56
2018-05-24T06:14:38.204Z,19.36
2018-05-24T06:17:05.082Z,19.79
2018-05-24T06:19:31.578Z,19.82
2018-05-24T06:21:58.062Z,19.61
2018-05-24T06:24:24.374Z,19.61
2018-05-24T06:26:50.756Z,19.61
2018-05-24T06:29:17.208Z,19.77
2018-05-24T06:31:43.744Z,19.82
2018-05-24T06:34:10.154Z,20.11
2018-05-24T06:36:36.526Z,19.57
2018-05-24T06:39:03.152Z,19.46
2018-05-24T06:41:29.555Z,19.89
2018-05-24T06:43:55.931Z,19.89
2018-05-24T06:46:22.577Z,19.85
2018-05-24T06:48:48.917Z,19.79
2018-05-24T06:51:15.293Z,19.79
2018-05-24T06:53:41.761Z,19.98
2018-05-24T06:56:08.107Z,20.17
2018-05-24T06:58:34.486Z,20.10
2018-05-24T07:01:01.814Z,20.23
2018-05-24T07:03:28.214Z,20.58
2018-05-24T07:05:54.808Z,20.68
2018-05-24T07:08:21.246Z,20.84
2018-05-24T07:10:47.582Z,21.25
2018-05-24T07:13:13.973Z,20.91
2018-05-24T07:15:40.571Z,20.78
2018-05-24T07:18:07.134Z,20.65
2018-05-24T07:20:33.539Z,20.39
2018-05-24T07:22:59.976Z,20.66
2018-05-24T07:25:26.411Z,20.72
2018-05-24T07:27:52.848Z,20.85
2018-05-24T07:30:19.206Z,21.12
2018-05-24T07:32:45.709Z,20.77
2018-05-24T07:35:12.114Z,20.55
2018-05-24T07:37:38.534Z,20.36
2018-05-24T07:40:04.925Z,20.31
2018-05-24T07:42:31.300Z,20.12
2018-05-24T07:44:57.696Z,20.26
2018-05-24T07:47:24.063Z,20.43
2018-05-24T07:49:50.538Z,20.60
2018-05-24T07:52:16.922Z,20.49
2018-05-24T07:54:43.324Z,20.33
2018-05-24T07:57:09.842Z,20.24
2018-05-24T07:59:36.376Z,20.32
2018-05-24T08:02:02.783Z,20.44
2018-05-24T08:04:29.170Z,20.84
2018-05-24T08:06:55.673Z,20.84
2018-05-24T08:09:22.113Z,20.64
2018-05-24T08:11:48.483Z,20.70
2018-05-24T08:14:14.926Z,20.78
2018-05-24T08:16:41.253Z,20.76
2018-05-24T08:19:07.767Z,20.77
2018-05-24T08:21:34.175Z,21.15
2018-05-24T08:24:00.825Z,21.24
2018-05-24T08:26:27.208Z,21.15
2018-05-24T08:28:53.550Z,21.04
2018-05-24T08:31:19.913Z,21.22
2018-05-24T08:33:46.587Z,21.10
2018-05-24T08:36:12.945Z,21.08
2018-05-24T08:38:39.338Z,21.16
2018-05-24T08:41:05.709Z,21.21
2018-05-24T08:43:33.212Z,21.27
2018-05-24T08:45:59.715Z,21.57
2018-05-24T08:48:26.365Z,21.68
2018-05-24T08:50:52.955Z,21.55
2018-05-24T08:53:19.447Z,21.81
2018-05-24T08:55:45.757Z,21.81
2018-05-24T08:58:13.012Z,21.64
2018-05-24T09:00:39.394Z,21.90
2018-05-24T09:03:06.411Z,21.98
2018-05-24T09:05:32.918Z,21.99
2018-05-24T09:07:59.410Z,21.82
2018-05-24T09:10:26.635Z,21.79
2018-05-24T09:12:53.294Z,21.58
2018-05-24T09:15:19.642Z,21.48
2018-05-24T09:17:46.138Z,21.57
2018-05-24T09:20:12.651Z,21.64
2018-05-24T09:22:39.113Z,21.84
2018-05-24T09:25:05.566Z,21.61
2018-05-24T09:27:31.934Z,21.91
2018-05-24T09:29:58.342Z,22.02
2018-05-24T09:32:24.818Z,22.02
2018-05-24T09:34:51.273Z,21.91
2018-05-24T09:37:17.629Z,21.88
2018-05-24T09:39:43.954Z,21.95
2018-05-24T09:42:10.395Z,22.01
2018-05-24T09:44:36.761Z,22.33
2018-05-24T09:47:03.135Z,22.39
2018-05-24T09:49:29.546Z,21.93
2018-05-24T09:51:55.974Z,22.09
2018-05-24T09:54:22.309Z,21.84
2018-05-24T09:56:48.695Z,21.96
2018-05-24T09:59:15.067Z,22.04
2018-05-24T10:01:41.426Z,21.78
2018-05-24T10:04:08.739Z,22.11
2018-05-24T10:06:36.673Z,22.20
2018-05-24T10:09:03.391Z,22.46
2018-05-24T10:11:29.830Z,22.45
2018-05-24T10:13:56.217Z,22.62
2018-05-24T10:16:22.777Z,22.39
2018-05-24T10:18:49.206Z,22.57
2018-05-24T10:21:15.815Z,22.67
2018-05-24T10:23:42.169Z,22.84
2018-05-24T10:26:08.508Z,23.04
2018-05-24T10:28:34.889Z,22.90
2018-05-24T10:31:01.286Z,22.87
2018-05-24T10:33:27.765Z,23.05
2018-05-24T10:35:54.687Z,22.93
2018-05-24T10:38:21.066Z,22.94
2018-05-24T10:40:47.541Z,22.72
2018-05-24T10:43:13.973Z,22.77
2018-05-24T10:45:40.388Z,22.75
2018-05-24T10:48:06.765Z,22.80
2018-05-24T10:50:33.149Z,22.77
2018-05-24T10:52:59.486Z,22.72
2018-05-24T10:55:25.857Z,22.91
2018-05-24T10:57:52.233Z,22.99
2018-05-24T11:00:18.573Z,22.99
2018-05-24T11:02:45.034Z,23.02
2018-05-24T11:05:11.437Z,23.13
2018-05-24T11:07:38.788Z,23.09
2018-05-24T11:10:05.149Z,22.95
2018-05-24T11:12:31.562Z,23.14
2018-05-24T11:14:57.978Z,23.18
2018-05-24T11:17:24.357Z,23.22
2018-05-24T11:19:50.737Z,23.39
2018-05-24T11:22:17.133Z,23.57
2018-05-24T11:24:43.523Z,23.32
2018-05-24T11:27:09.999Z,23.48
2018-05-24T11:29:36.362Z,23.55
2018-05-24T11:32:06.913Z,23.60
2018-05-24T11:34:33.630Z,23.38
2018-05-24T11:37:00.008Z,23.53
2018-05-24T11:39:26.387Z,23.75
2018-05-24T11:41:52.714Z,23.73
2018-05-24T11:44:19.049Z,23.51
2018-05-24T11:46:45.471Z,23.60
2018-05-24T11:49:12.387Z,23.78
2018-05-24T11:51:38.823Z,23.99
2018-05-24T11:54:05.260Z,24.03
2018-05-24T11:56:32.058Z,24.02
2018-05-24T11:58:58.739Z,24.08
2018-05-24T12:01:25.271Z,23.87
2018-05-24T12:03:51.630Z,24.15
2018-05-24T12:06:18.145Z,23.89
2018-05-24T12:08:44.599Z,23.80
2018-05-24T12:11:10.966Z,23.98
2018-05-24T12:13:37.438Z,23.81
2018-05-24T12:16:04.721Z,23.85
2018-05-24T12:18:30.997Z,24.15
2018-05-24T12:20:57.381Z,24.17
2018-05-24T12:23:23.679Z,24.01
2018-05-24T12:25:50.028Z,24.03
2018-05-24T12:28:16.431Z,24.08
2018-05-24T12:30:42.831Z,23.84
2018-05-24T12:33:09.166Z,23.89
2018-05-24T12:35:35.653Z,24.14
2018-05-24T12:38:01.972Z,24.11
2018-05-24T12:40:28.356Z,24.05
2018-05-24T12:42:54.844Z,24.27
2018-05-24T12:45:21.255Z,24.33
2018-05-24T12:47:47.663Z,24.26
2018-05-24T12:50:14.042Z,24.45
2018-05-24T12:52:40.343Z,24.45
2018-05-24T12:55:06.685Z,24.50
2018-05-24T12:57:33.120Z,24.43
2018-05-24T12:59:59.527Z,24.51
2018-05-24T13:02:26.283Z,24.55
2018-05-24T13:04:52.670Z,24.50
2018-05-24T13:07:18.989Z,24.71
2018-05-24T13:09:45.406Z,24.48
2018-05-24T13:12:11.779Z,24.51
2018-05-24T13:14:38.108Z,24.40
2018-05-24T13:17:04.473Z,24.42
2018-05-24T13:19:30.813Z,24.50
2018-05-24T13:21:57.129Z,24.74
2018-05-24T13:24:23.632Z,24.90
2018-05-24T13:26:49.931Z,24.73
2018-05-24T13:29:16.330Z,24.62
2018-05-24T13:31:42.659Z,24.62
2018-05-24T13:34:08.945Z,24.82
2018-05-24T13:36:35.321Z,25.00
2018-05-24T13:39:02.215Z,24.76
2018-05-24T13:41:28.610Z,24.80
2018-05-24T13:43:55.068Z,24.74
2018-05-24T13:46:21.444Z,24.81
2018-05-24T13:48:47.724Z,24.93
2018-05-24T13:51:14.094Z,25.00
2018-05-24T13:53:40.386Z,25.14
2018-05-24T13:56:06.677Z,25.12
2018-05-24T13:58:32.982Z,25.18
2018-05-24T14:00:59.334Z,25.18
2018-05-24T14:03:25.622Z,25.02
2018-05-24T14:05:51.978Z,25.06
2018-05-24T14:08:18.367Z,25.10
2018-05-24T14:10:44.664Z,24.91
2018-05-24T14:13:11.015Z,25.02
2018-05-24T14:15:37.336Z,25.04
2018-05-24T14:18:03.625Z,25.13
2018-05-24T14:20:29.905Z,25.16
2018-05-24T14:22:56.316Z,25.12
2018-05-24T14:25:22.650Z,24.90
2018-05-24T14:27:48.943Z,24.81
2018-05-24T14:30:15.322Z,24.72
2018-05-24T14:32:41.538Z,24.70
2018-05-24T14:35:07.798Z,24.45
2018-05-24T14:37:34.126Z,24.42
2018-05-24T14:40:00.473Z,24.51
2018-05-24T14:42:26.838Z,24.17
2018-05-24T14:44:53.155Z,24.28
2018-05-24T14:47:19.635Z,23.98
2018-05-24T14:49:46.037Z,23.44
2018-05-24T14:52:12.369Z,23.50
2018-05-24T14:54:38.773Z,23.32
2018-05-24T14:57:05.143Z,23.14
2018-05-24T14:59:31.569Z,23.21
2018-05-24T15:01:57.869Z,23.17
2018-05-24T15:04:24.177Z,22.95
2018-05-24T15:06:50.529Z,22.88
2018-05-24T15:09:16.838Z,22.65
2018-05-24T15:11:43.165Z,22.81
2018-05-24T15:14:09.497Z,22.51
2018-05-24T15:16:35.833Z,22.25
2018-05-24T15:19:02.141Z,21.99
2018-05-24T15:21:28.522Z,21.70
2018-05-24T15:23:54.910Z,21.65
2018-05-24T15:26:21.283Z,21.57
2018-05-24T15:28:47.574Z,21.16
2018-05-24T15:31:13.922Z,21.03
2018-05-24T15:33:40.222Z,21.07
2018-05-24T15:36:06.571Z,21.20
2018-05-24T15:38:32.878Z,21.37
2018-05-24T15:40:59.165Z,21.50
2018-05-24T15:43:25.558Z,21.69
2018-05-24T15:45:51.830Z,21.46
2018-05-24T15:48:19.026Z,21.46
2018-05-24T15:50:45.394Z,21.54
2018-05-24T15:53:11.809Z,21.66
2018-05-24T15:55:38.978Z,21.76
2018-05-24T15:58:05.361Z,21.69
2018-05-24T16:00:31.884Z,21.48
2018-05-24T16:02:58.231Z,21.60
2018-05-24T16:05:24.594Z,21.53
2018-05-24T16:07:50.909Z,21.49
2018-05-24T16:10:17.213Z,21.57
2018-05-24T16:12:43.553Z,21.53
2018-05-24T16:15:09.940Z,21.53
2018-05-24T16:17:36.297Z,21.49
2018-05-24T16:20:02.690Z,21.51
2018-05-24T16:22:29.252Z,21.47
2018-05-24T16:24:55.514Z,21.56
2018-05-24T16:27:21.811Z,21.37
2018-05-24T16:29:48.859Z,21.42
2018-05-24T16:32:15.186Z,21.46
2018-05-24T16:34:41.497Z,21.46
2018-05-24T16:37:07.858Z,21.60
2018-05-24T16:39:34.190Z,21.64
2018-05-24T16:42:00.489Z,21.49
2018-05-24T16:44:26.845Z,21.50
2018-05-24T16:46:53.261Z,21.22
2018-05-24T16:49:19.587Z,21.02
2018-05-24T16:51:45.910Z,20.92
2018-05-24T16:54:12.259Z,20.86
2018-05-24T16:56:38.707Z,20.77
2018-05-24T16:59:05.190Z,20.82
2018-05-24T17:01:31.713Z,20.77
2018-05-24T17:03:58.058Z,20.77
2018-05-24T17:06:24.509Z,20.88
2018-05-24T17:08:50.807Z,20.88
2018-05-24T17:11:17.172Z,20.79
2018-05-24T17:13:43.537Z,20.71
2018-05-24T17:16:09.844Z,20.70
2018-05-24T17:18:36.116Z,20.81
2018-05-24T17:21:02.454Z,20.79
2018-05-24T17:23:28.781Z,20.72
2018-05-24T17:25:55.217Z,20.76
2018-05-24T17:28:21.574Z,20.74
2018-05-24T17:30:47.841Z,20.72
2018-05-24T17:33:14.158Z,20.69
2018-05-24T17:35:40.473Z,20.64
2018-05-24T17:38:06.769Z,20.61
2018-05-24T17:40:33.084Z,20.76
2018-05-24T17:42:59.434Z,20.69
2018-05-24T17:45:25.783Z,20.77
2018-05-24T17:47:52.102Z,20.85
2018-05-24T17:50:18.504Z,20.74
2018-05-24T17:52:44.939Z,20.63
2018-05-24T17:55:11.289Z,20.57
2018-05-24T17:57:37.679Z,20.55
2018-05-24T18:00:04.658Z,20.57
2018-05-24T18:02:30.977Z,20.53
2018-05-24T18:04:57.308Z,20.57
2018-05-24T18:07:23.658Z,20.55
2018-05-24T18:09:50.194Z,20.57
2018-05-24T18:12:16.611Z,20.61
2018-05-24T18:14:42.914Z,20.67
2018-05-24T18:17:09.374Z,20.63
2018-05-24T18:19:35.807Z,20.61
2018-05-24T18:22:02.127Z,20.61
2018-05-24T18:24:28.553Z,20.68
2018-05-24T18:26:54.857Z,20.82
2018-05-24T18:29:21.303Z,20.85
2018-05-24T18:31:47.598Z,20.76
2018-05-24T18:34:13.929Z,20.84
2018-05-24T18:36:40.293Z,20.90
2018-05-24T18:39:06.599Z,20.86
2018-05-24T18:41:32.877Z,20.69
2018-05-24T18:43:59.201Z,20.74
2018-05-24T18:46:25.481Z,20.68
2018-05-24T18:48:51.954Z,20.63
2018-05-24T18:51:18.281Z,20.59
2018-05-24T18:53:44.618Z,20.58
2018-05-24T18:56:11.185Z,20.52
2018-05-24T18:58:37.510Z,20.49
2018-05-24T19:01:03.848Z,20.45
2018-05-24T19:03:30.193Z,20.41
2018-05-24T19:05:56.506Z,20.35
2018-05-24T19:08:22.891Z,20.47
2018-05-24T19:10:49.285Z,20.39
2018-05-24T19:13:15.707Z,20.34
2018-05-24T19:15:42.059Z,20.32
2018-05-24T19:18:08.471Z,20.39
2018-05-24T19:20:34.857Z,20.31
2018-05-24T19:23:01.221Z,20.29
2018-05-24T19:25:27.652Z,20.31
2018-05-24T19:27:53.978Z,20.28
2018-05-24T19:30:20.470Z,20.28
2018-05-24T19:32:46.806Z,20.38
2018-05-24T19:35:13.611Z,20.39
2018-05-24T19:37:39.966Z,20.52
2018-05-24T19:40:06.310Z,20.43
2018-05-24T19:42:32.619Z,20.31
2018-05-24T19:44:58.961Z,20.26
2018-05-24T19:47:25.596Z,20.37
2018-05-24T19:49:52.160Z,20.38
2018-05-24T19:52:18.657Z,20.47
2018-05-24T19:54:44.991Z,20.39
2018-05-24T19:57:11.325Z,20.27
2018-05-24T19:59:37.697Z,20.28
2018-05-24T20:02:04.046Z,20.17
2018-05-24T20:04:30.364Z,20.08
2018-05-24T20:06:56.835Z,20.12
2018-05-24T20:09:23.125Z,20.14
2018-05-24T20:11:49.478Z,20.12
2018-05-24T20:14:15.842Z,20.06
2018-05-24T20:16:42.145Z,20.02
2018-05-24T20:19:08.443Z,20.17
2018-05-24T20:21:34.819Z,20.26
2018-05-24T20:24:01.184Z,20.28
2018-05-24T20:26:27.493Z,20.38
2018-05-24T20:28:53.894Z,20.27
2018-05-24T20:31:20.294Z,20.25
2018-05-24T20:33:46.718Z,20.14
2018-05-24T20:36:13.130Z,20.10
2018-05-24T20:38:39.416Z,20.03
2018-05-24T20:41:05.697Z,19.98
2018-05-24T20:43:32.071Z,19.93
2018-05-24T20:45:58.506Z,19.84
2018-05-24T20:48:24.846Z,19.96
2018-05-24T20:50:51.308Z,20.04
2018-05-24T20:53:17.651Z,20.06
2018-05-24T20:55:43.961Z,20.21
2018-05-24T20:58:10.330Z,20.28
2018-05-24T21:00:36.613Z,20.26
2018-05-24T21:03:02.921Z,20.38
2018-05-24T21:05:29.193Z,20.23
2018-05-24T21:07:55.729Z,20.11
2018-05-24T21:10:22.071Z,20.15
2018-05-24T21:12:48.402Z,20.22
2018-05-24T21:15:14.751Z,20.17
2018-05-24T21:17:41.159Z,20.28
2018-05-24T21:20:07.533Z,20.22
2018-05-24T21:22:33.915Z,20.07
2018-05-24T21:25:00.247Z,19.94
2018-05-24T21:27:26.564Z,20.05
2018-05-24T21:29:52.873Z,20.06
2018-05-24T21:32:19.157Z,20.01
2018-05-24T21:34:45.496Z,20.01
2018-05-24T21:37:11.902Z,19.96
2018-05-24T21:39:38.204Z,19.84
2018-05-24T21:42:04.694Z,19.89
2018-05-24T21:44:31.154Z,19.98
2018-05-24T21:46:57.461Z,19.83
2018-05-24T21:49:23.850Z,19.64
2018-05-24T21:51:50.160Z,19.70
2018-05-24T21:54:16.467Z,19.70
2018-05-24T21:56:42.794Z,19.75
2018-05-24T21:59:09.162Z,19.91
2018-05-24T22:01:35.495Z,19.91
2018-05-24T22:04:01.851Z,19.83
2018-05-24T22:06:28.286Z,19.75
2018-05-24T22:08:54.719Z,19.65
2018-05-24T22:11:21.022Z,19.58
2018-05-24T22:13:47.398Z,19.64
2018-05-24T22:16:13.721Z,19.66
2018-05-24T22:18:40.222Z,19.58
2018-05-24T22:21:06.567Z,19.58
2018-05-24T22:23:32.910Z,19.66
2018-05-24T22:25:59.217Z,19.75
2018-05-24T22:28:25.583Z,19.77
2018-05-24T22:30:52.738Z,19.91
2018-05-24T22:33:19.071Z,19.85
2018-05-24T22:35:45.413Z,19.68
2018-05-24T22:38:11.761Z,19.80
2018-05-24T22:40:38.136Z,19.79
2018-05-24T22:43:04.558Z,19.83
2018-05-24T22:45:30.890Z,19.88
2018-05-24T22:47:57.276Z,19.96
2018-05-24T22:50:23.706Z,19.87
2018-05-24T22:52:50.098Z,19.87
2018-05-24T22:55:16.545Z,19.87
2018-05-24T22:57:42.981Z,19.76
2018-05-24T23:00:09.366Z,19.88
2018-05-24T23:02:35.616Z,19.96
2018-05-24T23:05:02.122Z,19.97
2018-05-24T23:07:28.482Z,20.00
2018-05-24T23:09:55.794Z,20.04
2018-05-24T23:12:22.178Z,19.97
2018-05-24T23:14:48.548Z,19.77
2018-05-24T23:17:14.888Z,19.71
2018-05-24T23:19:41.220Z,19.92
2018-05-24T23:22:07.623Z,19.64
2018-05-24T23:24:34.090Z,19.69
2018-05-24T23:27:00.465Z,19.72
2018-05-24T23:29:26.798Z,19.82
2018-05-24T23:31:53.220Z,19.78
2018-05-24T23:34:19.582Z,19.81
2018-05-24T23:36:45.993Z,19.63
2018-05-24T23:39:12.377Z,19.41
2018-05-24T23:41:38.781Z,19.42
2018-05-24T23:44:05.188Z,19.36
2018-05-24T23:46:32.582Z,19.40
2018-05-24T23:48:58.979Z,19.32
2018-05-24T23:51:25.314Z,19.50
2018-05-24T23:53:51.717Z,19.43
2018-05-24T23:56:18.201Z,19.34
2018-05-24T23:58:44.562Z,19.30
